Time;durP1;ratioP1;P1;durP2;ratioP2;P2;SDS_P1;SDS_P2;PMS_P1;PMS_P2;Temp;Humidity;BMP_temperature;BMP_pressure;BME280_temperature;BME280_humidity;BME280_pressure;Samples;Min_cycle;Max_cycle;Signal;HPM_P1;HPM_P2
2022/10/02 00:00:31;;;;;;;;;2.75;2.75;26.10;99.90;;;;;;5008556;28;8860;-64
2022/10/02 00:03:20;;;;;;;;;3.00;3.00;26.00;99.90;;;;;;4986904;28;8865;-63
2022/10/02 00:06:02;;;;;;;;;2.50;2.50;25.80;99.90;;;;;;5010590;28;8877;-63
2022/10/02 00:08:37;;;;;;;;;3.00;3.00;25.60;99.90;;;;;;4987068;28;8838;-63
2022/10/02 00:11:21;;;;;;;;;3.00;3.00;25.40;99.90;;;;;;5006032;28;9610;-63
2022/10/02 00:14:01;;;;;;;;;2.75;2.75;25.10;99.90;;;;;;4998211;28;8846;-58
2022/10/02 00:16:48;;;;;;;;;2.25;2.25;25.00;99.90;;;;;;4993483;28;8868;-56
2022/10/02 00:19:22;;;;;;;;;2.75;2.75;24.90;99.90;;;;;;4966050;28;9192;-64
2022/10/02 00:22:05;;;;;;;;;3.00;3.00;24.60;99.90;;;;;;4981683;28;8870;-64
2022/10/02 00:25:02;;;;;;;;;2.75;2.75;24.70;99.90;;;;;;4968851;28;8969;-64
2022/10/02 00:27:53;;;;;;;;;2.50;2.50;24.50;99.90;;;;;;4974511;28;9716;-64
2022/10/02 00:30:24;;;;;;;;;4.00;4.00;24.40;99.90;;;;;;4993436;28;8822;-58
2022/10/02 00:33:25;;;;;;;;;4.00;4.00;24.30;99.90;;;;;;4993236;28;8860;-63
2022/10/02 00:36:19;;;;;;;;;4.50;3.00;24.20;99.90;;;;;;4986815;28;8886;-63
2022/10/02 00:39:27;;;;;;;;;3.25;3.25;24.30;99.90;;;;;;4989010;28;8869;-63
2022/10/02 00:42:18;;;;;;;;;3.00;3.00;24.40;99.90;;;;;;4989090;28;8846;-64
2022/10/02 00:44:54;;;;;;;;;3.00;3.00;24.30;99.90;;;;;;4985889;28;8876;-57
2022/10/02 00:48:02;;;;;;;;;3.00;3.00;24.30;99.90;;;;;;4989057;28;8852;-58
2022/10/02 00:51:11;;;;;;;;;4.00;4.00;24.30;99.90;;;;;;4966398;28;8872;-56
2022/10/02 00:54:17;;;;;;;;;4.00;4.00;24.30;99.90;;;;;;4988345;28;8835;-57
2022/10/02 00:57:00;;;;;;;;;2.75;2.75;24.20;99.90;;;;;;4985972;28;8854;-57
2022/10/02 00:59:58;;;;;;;;;3.75;3.75;24.10;99.90;;;;;;4993979;28;8845;-57
2022/10/02 01:02:31;;;;;;;;;3.25;3.25;24.10;99.90;;;;;;4981390;28;8878;-57
2022/10/02 01:05:07;;;;;;;;;3.50;3.50;23.90;99.90;;;;;;4986478;28;8848;-57
2022/10/02 01:07:44;;;;;;;;;2.50;2.50;23.90;99.90;;;;;;4986239;28;8870;-56
2022/10/02 01:10:17;;;;;;;;;1.00;1.00;23.80;99.90;;;;;;4987880;28;8840;-64
2022/10/02 01:12:48;;;;;;;;;4.50;4.50;23.70;99.90;;;;;;4988862;28;8849;-57
2022/10/02 01:15:26;;;;;;;;;4.00;4.00;23.60;99.90;;;;;;4976684;28;8884;-58
2022/10/02 01:17:58;;;;;;;;;3.75;3.75;23.50;99.90;;;;;;5000302;28;8992;-58
2022/10/02 01:20:46;;;;;;;;;3.75;3.75;23.60;99.90;;;;;;4967094;28;8869;-58
2022/10/02 01:23:46;;;;;;;;;4.00;4.00;23.40;99.90;;;;;;5009571;28;8866;-57
2022/10/02 01:26:18;;;;;;;;;5.00;3.00;23.30;99.90;;;;;;5008715;28;8874;-57
2022/10/02 01:28:51;;;;;;;;;5.00;5.00;23.30;99.90;;;;;;5010943;28;8887;-57
2022/10/02 01:31:23;;;;;;;;;5.00;5.00;23.20;99.90;;;;;;4989191;28;9581;-59
2022/10/02 01:33:54;;;;;;;;;5.00;5.00;23.00;99.90;;;;;;5004890;28;10237;-64
2022/10/02 01:36:27;;;;;;;;;4.00;4.00;23.00;99.90;;;;;;5013339;28;8866;-64
2022/10/02 01:39:00;;;;;;;;;5.00;5.00;22.90;99.90;;;;;;4989050;28;8872;-65
2022/10/02 01:41:31;;;;;;;;;4.75;4.75;22.80;99.90;;;;;;5008480;28;8835;-64
2022/10/02 01:44:03;;;;;;;;;5.00;5.00;22.80;99.90;;;;;;5003255;28;8896;-57
2022/10/02 01:46:53;;;;;;;;;4.00;4.00;22.80;99.90;;;;;;4984125;28;8826;-57
2022/10/02 01:49:55;;;;;;;;;4.75;3.00;22.70;99.90;;;;;;4993845;28;8876;-58
2022/10/02 01:52:49;;;;;;;;;4.50;4.50;22.70;99.90;;;;;;4992079;28;9762;-57
2022/10/02 01:56:05;;;;;;;;;3.25;3.25;22.80;99.90;;;;;;4997591;28;8828;-64
2022/10/02 01:58:53;;;;;;;;;5.00;5.00;22.80;99.90;;;;;;4989469;28;8843;-64
2022/10/02 02:01:24;;;;;;;;;5.00;5.00;22.80;99.90;;;;;;4983612;28;8826;-64
2022/10/02 02:04:32;;;;;;;;;6.25;6.25;22.70;99.90;;;;;;5000472;28;8877;-63
2022/10/02 02:07:17;;;;;;;;;6.00;6.00;22.70;99.90;;;;;;4988797;28;8838;-65
2022/10/02 02:09:59;;;;;;;;;5.00;5.00;22.60;99.90;;;;;;4989181;28;8860;-55
2022/10/02 02:12:46;;;;;;;;;5.75;5.75;22.60;99.90;;;;;;4998663;28;8845;-56
2022/10/02 02:15:33;;;;;;;;;6.00;6.00;22.40;99.90;;;;;;4997838;28;8840;-66
2022/10/02 02:18:28;;;;;;;;;5.00;5.00;22.30;99.90;;;;;;4990823;28;8842;-55
2022/10/02 02:21:07;;;;;;;;;4.50;4.50;22.10;99.90;;;;;;4989478;28;8878;-55
2022/10/02 02:23:40;;;;;;;;;5.75;5.75;21.90;99.90;;;;;;4997847;28;8853;-66
2022/10/02 02:26:18;;;;;;;;;6.25;6.25;22.00;99.90;;;;;;4981760;28;8878;-65
2022/10/02 02:28:57;;;;;;;;;4.00;4.00;21.90;99.90;;;;;;4986295;28;8844;-55
2022/10/02 02:31:41;;;;;;;;;5.00;5.00;21.90;99.90;;;;;;4989720;28;8996;-57
2022/10/02 02:34:15;;;;;;;;;7.00;7.00;21.70;99.90;;;;;;4964125;28;8859;-64
2022/10/02 02:36:50;;;;;;;;;5.00;5.00;21.70;99.90;;;;;;4978234;28;9724;-64
2022/10/02 02:39:28;;;;;;;;;5.00;5.00;21.70;99.90;;;;;;4991668;28;8880;-66
2022/10/02 02:42:07;;;;;;;;;5.25;5.25;21.70;99.90;;;;;;4975741;28;8846;-63
2022/10/02 02:44:48;;;;;;;;;5.75;5.75;21.60;99.90;;;;;;4972737;28;8830;-57
2022/10/02 02:47:27;;;;;;;;;5.00;5.00;21.40;99.90;;;;;;4991688;28;9029;-58
2022/10/02 02:50:18;;;;;;;;;5.75;5.75;21.50;99.90;;;;;;4994968;28;8853;-63
2022/10/02 02:53:09;;;;;;;;;6.50;6.50;21.50;99.90;;;;;;4994080;28;8866;-58
2022/10/02 02:55:48;;;;;;;;;6.50;6.00;21.50;99.90;;;;;;4975951;28;8849;-58
2022/10/02 02:58:45;;;;;;;;;5.25;5.25;21.40;99.90;;;;;;4994985;28;8822;-62
2022/10/02 03:01:20;;;;;;;;;5.00;5.00;21.30;99.90;;;;;;4989426;28;8880;-62
2022/10/02 03:04:03;;;;;;;;;4.50;4.25;21.20;99.90;;;;;;4969879;28;8837;-60
2022/10/02 03:06:46;;;;;;;;;5.75;5.75;21.20;99.90;;;;;;4988289;28;8874;-58
2022/10/02 03:09:22;;;;;;;;;5.75;5.75;21.20;99.90;;;;;;4970758;28;8849;-62
2022/10/02 03:12:03;;;;;;;;;5.25;5.25;21.10;99.90;;;;;;4984432;28;9571;-59
2022/10/02 03:15:01;;;;;;;;;7.00;7.00;21.00;99.90;;;;;;4993528;28;8842;-59
2022/10/02 03:17:53;;;;;;;;;7.75;7.00;20.90;99.90;;;;;;4976819;28;9024;-61
2022/10/02 03:20:40;;;;;;;;;5.75;5.75;21.00;99.90;;;;;;4992207;28;8833;-59
2022/10/02 03:23:50;;;;;;;;;9.00;9.00;20.80;99.90;;;;;;4990645;28;8880;-58
2022/10/02 03:26:28;;;;;;;;;10.25;10.25;20.60;99.90;;;;;;4986593;28;8868;-59
2022/10/02 03:29:02;;;;;;;;;8.25;7.50;20.50;99.90;;;;;;4980363;28;8941;-62
2022/10/02 03:31:36;;;;;;;;;13.75;12.00;20.50;99.90;;;;;;4992415;28;8853;-60
2022/10/02 03:34:10;;;;;;;;;9.00;9.00;20.50;99.90;;;;;;4991315;28;9603;-58
2022/10/02 03:36:46;;;;;;;;;12.25;12.00;20.50;99.90;;;;;;4989006;28;8854;-58
2022/10/02 03:39:17;;;;;;;;;9.25;9.25;20.40;99.90;;;;;;4971980;28;8858;-60
2022/10/02 03:41:55;;;;;;;;;10.25;10.25;20.40;99.90;;;;;;4991383;28;8862;-63
2022/10/02 03:44:25;;;;;;;;;9.75;9.75;20.60;99.90;;;;;;4991533;28;8846;-60
2022/10/02 03:46:55;;;;;;;;;11.00;10.75;20.70;99.90;;;;;;4991160;28;8873;-60
2022/10/02 03:49:30;;;;;;;;;10.00;8.50;20.50;99.90;;;;;;4959927;28;8857;-59
2022/10/02 03:52:14;;;;;;;;;8.00;8.00;20.30;99.90;;;;;;4988952;28;8885;-57
2022/10/02 03:54:48;;;;;;;;;9.25;9.25;20.20;99.90;;;;;;4989028;28;8877;-62
2022/10/02 03:57:26;;;;;;;;;6.00;6.00;20.10;99.90;;;;;;4973940;28;8838;-61
2022/10/02 04:00:11;;;;;;;;;6.00;6.00;20.00;99.90;;;;;;4989597;28;8914;-62
2022/10/02 04:02:57;;;;;;;;;8.00;8.00;20.10;99.90;;;;;;4990525;28;9599;-59
2022/10/02 04:05:57;;;;;;;;;6.00;6.00;20.20;99.90;;;;;;4974219;28;8868;-58
2022/10/02 04:09:29;;;;;;;;;5.00;5.00;20.20;99.90;;;;;;4945732;28;8826;-59
2022/10/02 04:12:07;;;;;;;;;6.75;6.75;20.00;99.90;;;;;;4967220;28;8858;-60
2022/10/02 04:15:12;;;;;;;;;7.50;7.50;19.90;99.90;;;;;;4992431;28;8853;-58
2022/10/02 04:17:50;;;;;;;;;7.00;7.00;19.80;99.90;;;;;;4914207;28;8857;-60
2022/10/02 04:20:40;;;;;;;;;6.00;6.00;19.70;99.90;;;;;;4996678;28;8833;-60
2022/10/02 04:23:41;;;;;;;;;5.75;5.75;19.60;99.90;;;;;;4996303;28;8841;-58
2022/10/02 04:26:41;;;;;;;;;5.25;5.25;19.50;99.90;;;;;;4994090;28;8874;-64
2022/10/02 04:29:19;;;;;;;;;3.00;3.00;19.70;99.90;;;;;;4994318;28;8878;-59
2022/10/02 04:31:59;;;;;;;;;5.25;5.25;19.60;99.90;;;;;;4986291;28;8854;-59
2022/10/02 04:34:31;;;;;;;;;5.33;5.33;19.60;99.90;;;;;;4979251;28;8874;-59
2022/10/02 04:37:07;;;;;;;;;5.00;5.00;19.60;99.90;;;;;;4996967;28;8885;-57
2022/10/02 04:39:49;;;;;;;;;7.00;7.00;19.50;99.90;;;;;;5000145;28;8828;-58
2022/10/02 04:42:49;;;;;;;;;6.00;6.00;19.50;99.90;;;;;;4992667;28;8876;-58
2022/10/02 04:45:31;;;;;;;;;3.00;3.00;19.30;99.90;;;;;;4984976;28;8858;-58
2022/10/02 04:48:16;;;;;;;;;6.25;6.25;19.30;99.90;;;;;;4999589;28;8939;-61
2022/10/02 04:50:58;;;;;;;;;4.50;4.50;19.20;99.90;;;;;;5002331;28;8868;-60
2022/10/02 04:53:41;;;;;;;;;5.50;5.50;19.20;99.90;;;;;;4991627;28;8860;-60
2022/10/02 04:57:01;;;;;;;;;4.75;4.75;19.30;99.90;;;;;;5001279;28;9551;-60
2022/10/02 04:59:37;;;;;;;;;5.75;5.75;19.10;99.90;;;;;;5006393;28;8857;-60
2022/10/02 05:02:21;;;;;;;;;5.00;5.00;19.10;99.90;;;;;;4989556;28;8928;-60
2022/10/02 05:04:51;;;;;;;;;6.33;6.33;19.00;99.90;;;;;;4990073;28;8989;-55
2022/10/02 05:07:40;;;;;;;;;6.25;6.25;19.00;99.90;;;;;;4999045;28;8941;-57
2022/10/02 05:10:16;;;;;;;;;7.00;7.00;18.90;99.90;;;;;;5000380;28;8872;-60
2022/10/02 05:13:09;;;;;;;;;6.00;6.00;18.80;99.90;;;;;;4988517;28;8856;-60
2022/10/02 05:16:11;;;;;;;;;5.75;5.75;18.60;99.90;;;;;;4984102;28;8869;-59
2022/10/02 05:18:44;;;;;;;;;6.00;6.00;18.60;99.90;;;;;;4997285;28;8969;-65
2022/10/02 05:21:58;;;;;;;;;5.75;5.75;18.60;99.90;;;;;;4998029;28;8911;-61
2022/10/02 05:24:33;;;;;;;;;6.00;6.00;18.60;99.90;;;;;;4993860;28;8900;-61
2022/10/02 05:27:27;;;;;;;;;6.33;6.33;18.60;99.90;;;;;;4999556;28;9006;-67
2022/10/02 05:30:05;;;;;;;;;8.33;8.33;18.60;99.90;;;;;;4997293;28;8936;-61
2022/10/02 05:33:21;;;;;;;;;4.00;4.00;18.60;99.90;;;;;;4997831;28;8928;-58
2022/10/02 05:36:21;;;;;;;;;6.00;6.00;18.40;99.90;;;;;;4970143;28;9214;-58
2022/10/02 05:38:58;;;;;;;;;6.00;6.00;18.40;99.90;;;;;;4996543;28;9786;-61
2022/10/02 05:41:40;;;;;;;;;7.33;7.33;18.30;99.90;;;;;;4996883;28;9273;-61
2022/10/02 05:44:23;;;;;;;;;8.00;8.00;18.30;99.90;;;;;;5002047;28;9240;-59
2022/10/02 05:47:08;;;;;;;;;6.33;6.33;18.30;99.90;;;;;;4999559;28;9183;-58
2022/10/02 05:50:00;;;;;;;;;7.67;7.67;18.20;99.90;;;;;;4999947;28;9129;-60
2022/10/02 05:52:55;;;;;;;;;5.00;5.00;18.10;99.90;;;;;;5002272;28;9163;-63
2022/10/02 05:55:38;;;;;;;;;8.00;8.00;18.10;99.90;;;;;;4994274;28;9098;-61
2022/10/02 05:58:24;;;;;;;;;6.33;6.33;18.10;99.90;;;;;;4996765;28;9164;-57
2022/10/02 06:01:06;;;;;;;;;6.00;6.00;18.00;99.90;;;;;;4999618;28;9390;-58
2022/10/02 06:04:08;;;;;;;;;7.00;7.00;18.20;99.90;;;;;;4994702;28;9224;-57
2022/10/02 06:06:57;;;;;;;;;9.00;9.00;18.10;99.90;;;;;;4985925;23;10012;-72
2022/10/02 06:09:42;;;;;;;;;10.33;10.33;18.00;99.90;;;;;;4998629;28;9244;-74
2022/10/02 06:12:54;;;;;;;;;7.00;7.00;18.00;99.90;;;;;;5007857;28;9562;-74
2022/10/02 06:15:41;;;;;;;;;7.00;7.00;17.90;99.90;;;;;;5027576;28;9374;-74
2022/10/02 06:18:23;;;;;;;;;5.33;5.33;17.90;99.90;;;;;;5035486;28;9497;-73
2022/10/02 06:21:21;;;;;;;;;6.00;6.00;17.90;99.90;;;;;;5005899;28;9333;-72
2022/10/02 06:24:01;;;;;;;;;5.00;5.00;17.90;99.90;;;;;;5002942;28;10068;-71
2022/10/02 06:26:40;;;;;;;;;5.00;5.00;17.90;99.90;;;;;;4999644;28;9276;-71
2022/10/02 06:29:26;;;;;;;;;3.67;3.67;17.90;99.90;;;;;;5020458;28;9291;-73
2022/10/02 06:32:21;;;;;;;;;6.00;6.00;18.00;99.90;;;;;;5009952;28;9218;-72
2022/10/02 06:35:01;;;;;;;;;6.00;6.00;17.90;99.90;;;;;;5036390;28;9285;-71
2022/10/02 06:37:49;;;;;;;;;7.00;7.00;17.90;99.90;;;;;;5014758;28;9542;-73
2022/10/02 06:40:44;;;;;;;;;5.00;5.00;17.80;99.90;;;;;;5007376;28;9538;-72
2022/10/02 06:43:30;;;;;;;;;6.33;6.33;17.50;99.90;;;;;;5014476;28;9389;-74
2022/10/02 06:46:43;;;;;;;;;6.00;6.00;17.50;99.90;;;;;;5017406;28;9554;-73
2022/10/02 06:49:45;;;;;;;;;4.67;4.67;17.50;99.90;;;;;;5017002;28;9493;-74
2022/10/02 06:52:36;;;;;;;;;5.00;5.00;17.50;99.90;;;;;;5011959;28;9584;-75
2022/10/02 06:55:29;;;;;;;;;6.00;6.00;17.40;99.90;;;;;;5030610;28;9681;-74
2022/10/02 06:58:13;;;;;;;;;4.00;4.00;17.70;99.90;;;;;;5020327;28;9689;-72
2022/10/02 07:01:08;;;;;;;;;6.33;5.67;17.60;99.90;;;;;;5010095;28;9388;-73
2022/10/02 07:04:17;;;;;;;;;5.00;5.00;17.50;99.90;;;;;;5016466;28;9421;-74
2022/10/02 07:07:23;;;;;;;;;6.00;6.00;17.40;99.90;;;;;;4982430;28;9386;-73
2022/10/02 07:10:26;;;;;;;;;4.67;4.67;17.30;99.90;;;;;;5019404;28;9423;-73
2022/10/02 07:13:46;;;;;;;;;6.00;6.00;17.20;99.90;;;;;;5011683;28;9492;-74
2022/10/02 07:16:42;;;;;;;;;5.33;5.33;17.10;99.90;;;;;;4944907;28;9553;-72
2022/10/02 07:19:58;;;;;;;;;3.00;3.00;17.10;99.90;;;;;;4950711;28;9492;-72
2022/10/02 07:22:32;;;;;;;;;4.00;4.00;17.00;99.90;;;;;;5009801;28;9425;-73
2022/10/02 07:25:35;;;;;;;;;6.00;6.00;16.90;99.90;;;;;;5018596;28;9444;-75
2022/10/02 07:28:26;;;;;;;;;7.00;5.33;17.00;99.90;;;;;;5013450;28;10135;-73
2022/10/02 07:31:21;;;;;;;;;5.00;5.00;17.00;99.90;;;;;;5012211;28;9441;-73
2022/10/02 07:34:40;;;;;;;;;6.00;6.00;16.90;99.90;;;;;;5010816;28;9476;-74
2022/10/02 07:37:30;;;;;;;;;7.00;6.00;17.20;99.90;;;;;;5030100;28;9530;-73
2022/10/02 07:40:33;;;;;;;;;4.00;4.00;17.30;99.90;;;;;;5014298;28;9548;-73
2022/10/02 07:43:24;;;;;;;;;5.00;5.00;17.10;99.90;;;;;;5015972;28;9754;-74
2022/10/02 07:46:09;;;;;;;;;7.25;7.25;17.00;99.90;;;;;;5007707;28;9652;-76
2022/10/02 07:48:51;;;;;;;;;3.00;3.00;17.00;99.90;;;;;;5015502;28;9771;-72
2022/10/02 07:51:49;;;;;;;;;4.50;4.50;16.80;99.90;;;;;;5011858;28;9856;-72
2022/10/02 07:54:47;;;;;;;;;3.00;3.00;16.80;99.90;;;;;;5020400;28;9885;-73
2022/10/02 07:57:41;;;;;;;;;4.00;4.00;16.70;99.90;;;;;;5016013;28;9957;-71
2022/10/02 08:00:15;;;;;;;;;3.25;3.25;16.70;99.90;;;;;;5018015;28;9870;-72
2022/10/02 08:02:59;;;;;;;;;1.00;1.00;16.60;99.90;;;;;;5005831;28;9931;-73
2022/10/02 08:05:57;;;;;;;;;4.50;4.50;16.50;99.90;;;;;;5020239;28;9726;-72
2022/10/02 08:08:51;;;;;;;;;0.00;0.00;16.40;99.90;;;;;;5026766;28;10040;-72
2022/10/02 08:11:35;;;;;;;;;3.75;3.75;16.30;99.90;;;;;;5014273;28;9863;-74
2022/10/02 08:14:43;;;;;;;;;3.00;3.00;16.40;99.90;;;;;;5025416;28;10028;-75
2022/10/02 08:17:35;;;;;;;;;4.00;4.00;16.50;99.90;;;;;;5018860;28;9948;-72
2022/10/02 08:20:21;;;;;;;;;3.50;3.50;16.60;99.90;;;;;;5017917;28;10653;-73
2022/10/02 08:23:31;;;;;;;;;7.50;7.50;16.60;99.90;;;;;;5005730;28;9924;-72
2022/10/02 08:26:33;;;;;;;;;9.00;7.75;16.60;99.90;;;;;;5013326;28;10156;-73
2022/10/02 08:29:08;;;;;;;;;7.75;7.75;16.50;99.90;;;;;;5031811;28;10250;-74
2022/10/02 08:31:40;;;;;;;;;8.25;8.25;16.50;99.90;;;;;;5014516;28;10062;-73
2022/10/02 08:34:23;;;;;;;;;9.00;9.00;16.40;99.90;;;;;;5016449;28;10156;-73
2022/10/02 08:37:18;;;;;;;;;10.25;10.25;16.40;99.90;;;;;;5016489;28;9925;-73
2022/10/02 08:40:08;;;;;;;;;6.50;6.50;16.40;99.90;;;;;;4995007;28;10100;-73
2022/10/02 08:43:16;;;;;;;;;6.75;6.75;16.20;99.90;;;;;;5003988;28;10180;-72
2022/10/02 08:46:24;;;;;;;;;8.25;8.25;16.00;99.90;;;;;;5005518;28;10396;-74
2022/10/02 08:49:35;;;;;;;;;8.25;8.25;16.10;99.90;;;;;;5017003;28;10431;-74
2022/10/02 08:52:24;;;;;;;;;7.00;7.00;16.20;99.90;;;;;;5016713;28;10614;-73
2022/10/02 08:55:13;;;;;;;;;5.50;5.50;16.20;99.90;;;;;;4982740;28;10382;-72
2022/10/02 08:58:05;;;;;;;;;5.00;5.00;16.10;99.90;;;;;;5023769;28;10212;-72
2022/10/02 09:01:00;;;;;;;;;7.00;7.00;16.20;99.90;;;;;;5018160;28;10408;-73
2022/10/02 09:03:53;;;;;;;;;6.50;6.50;15.90;99.90;;;;;;4998763;28;10385;-73
2022/10/02 09:06:55;;;;;;;;;6.25;6.25;15.90;99.90;;;;;;4998820;28;12126;-74
2022/10/02 09:09:58;;;;;;;;;5.50;5.50;15.90;99.90;;;;;;4990196;28;10409;-73
2022/10/02 09:12:46;;;;;;;;;5.50;5.50;16.00;99.90;;;;;;5015513;28;11809;-72
2022/10/02 09:15:37;;;;;;;;;7.00;7.00;16.10;99.90;;;;;;5015858;28;10430;-73
2022/10/02 09:18:32;;;;;;;;;5.00;5.00;16.20;99.90;;;;;;5011906;28;11150;-72
2022/10/02 09:21:16;;;;;;;;;5.00;5.00;16.00;99.90;;;;;;5008790;28;10305;-73
2022/10/02 09:24:19;;;;;;;;;6.00;6.00;16.10;99.90;;;;;;5018049;28;10170;-71
2022/10/02 09:27:18;;;;;;;;;7.00;7.00;16.10;99.90;;;;;;5003929;28;10393;-73
2022/10/02 09:30:23;;;;;;;;;7.00;7.00;16.10;99.90;;;;;;5014317;28;10323;-73
2022/10/02 09:33:29;;;;;;;;;5.50;5.50;16.00;99.90;;;;;;5021677;28;9988;-72
2022/10/02 09:36:26;;;;;;;;;5.00;5.00;16.00;99.90;;;;;;5007706;28;10080;-72
2022/10/02 09:39:54;;;;;;;;;5.25;5.25;15.80;99.90;;;;;;4999582;28;9953;-72
2022/10/02 09:43:06;;;;;;;;;6.00;6.00;15.80;99.90;;;;;;4967881;28;10034;-72
2022/10/02 09:46:29;;;;;;;;;7.00;7.00;15.90;99.90;;;;;;5001066;28;10090;-73
2022/10/02 09:49:24;;;;;;;;;6.00;6.00;15.80;99.90;;;;;;5019615;28;10195;-74
2022/10/02 09:52:08;;;;;;;;;5.00;5.00;15.80;99.90;;;;;;5016537;28;10158;-72
2022/10/02 09:55:06;;;;;;;;;2.00;2.00;15.70;99.90;;;;;;5017644;28;10133;-72
2022/10/02 09:57:53;;;;;;;;;5.00;5.00;15.70;99.90;;;;;;5018602;28;10070;-72
2022/10/02 10:00:40;;;;;;;;;4.75;4.75;15.90;99.90;;;;;;5015225;28;10125;-71
2022/10/02 10:03:38;;;;;;;;;4.50;4.50;15.90;99.90;;;;;;5020252;28;10397;-72
2022/10/02 10:07:06;;;;;;;;;6.00;6.00;15.90;99.90;;;;;;5014193;28;9923;-73
2022/10/02 10:09:58;;;;;;;;;6.00;6.00;15.80;99.90;;;;;;4941022;28;10082;-72
2022/10/02 10:12:59;;;;;;;;;7.00;7.00;15.80;99.90;;;;;;4941188;28;10094;-72
2022/10/02 10:16:09;;;;;;;;;7.25;7.25;15.80;99.90;;;;;;5022010;28;10038;-73
2022/10/02 10:19:03;;;;;;;;;5.25;5.25;15.70;99.90;;;;;;5021211;28;10003;-73
2022/10/02 10:22:12;;;;;;;;;5.00;5.00;15.60;99.90;;;;;;5024676;28;10066;-73
2022/10/02 10:25:17;;;;;;;;;5.75;5.75;15.60;99.90;;;;;;5032964;28;10118;-72
2022/10/02 10:28:18;;;;;;;;;4.25;4.25;15.60;99.90;;;;;;5016219;28;10077;-72
2022/10/02 10:30:57;;;;;;;;;6.00;6.00;15.60;99.90;;;;;;4993991;28;10224;-73
2022/10/02 10:33:52;;;;;;;;;6.25;6.25;15.60;99.90;;;;;;5021416;28;10378;-73
2022/10/02 10:40:08;;;;;;;;;5.75;4.25;15.60;99.90;;;;;;5018115;28;9928;-73
2022/10/02 10:43:03;;;;;;;;;5.75;5.50;15.60;99.90;;;;;;4985940;28;10150;-72
2022/10/02 10:45:57;;;;;;;;;6.25;6.25;15.70;99.90;;;;;;5015329;28;10146;-72
2022/10/02 10:48:42;;;;;;;;;6.50;6.50;15.70;99.90;;;;;;5000682;28;10081;-72
2022/10/02 10:51:47;;;;;;;;;4.50;4.50;15.60;99.90;;;;;;5009449;28;10311;-73
2022/10/02 10:54:59;;;;;;;;;6.25;6.25;15.40;99.90;;;;;;5013168;28;10183;-75
2022/10/02 10:57:56;;;;;;;;;5.50;5.50;15.30;99.90;;;;;;5019009;28;10404;-71
2022/10/02 11:00:40;;;;;;;;;6.00;6.00;15.20;99.90;;;;;;5011129;28;10115;-73
2022/10/02 11:03:57;;;;;;;;;7.00;7.00;15.20;99.90;;;;;;5014601;28;10303;-73
2022/10/02 11:06:55;;;;;;;;;6.75;6.75;15.30;99.90;;;;;;5024464;28;10096;-72
2022/10/02 11:09:51;;;;;;;;;6.25;6.25;15.40;99.90;;;;;;5017769;28;11093;-74
2022/10/02 11:12:40;;;;;;;;;4.75;4.75;15.30;99.90;;;;;;4992823;28;10312;-72
2022/10/02 11:15:45;;;;;;;;;4.75;4.75;15.20;99.90;;;;;;5011817;28;10275;-72
2022/10/02 11:18:45;;;;;;;;;8.50;8.50;15.20;99.90;;;;;;5001148;28;10302;-72
2022/10/02 11:21:34;;;;;;;;;10.50;10.50;14.90;99.90;;;;;;5002820;28;10458;-73
2022/10/02 11:24:29;;;;;;;;;6.50;6.50;14.90;99.90;;;;;;5027000;28;10401;-74
2022/10/02 11:27:36;;;;;;;;;5.50;5.50;15.00;99.90;;;;;;5016311;28;11757;-71
2022/10/02 11:30:31;;;;;;;;;6.50;6.50;15.00;99.90;;;;;;5021234;28;10314;-73
2022/10/02 11:33:26;;;;;;;;;6.25;6.25;15.10;99.90;;;;;;5024069;28;10461;-72
2022/10/02 11:36:08;;;;;;;;;6.00;6.00;15.10;99.90;;;;;;5016630;28;10369;-71
2022/10/02 11:38:59;;;;;;;;;6.00;6.00;15.10;99.90;;;;;;5022021;28;10396;-72
2022/10/02 11:41:37;;;;;;;;;6.50;6.50;15.10;99.90;;;;;;5015947;28;10326;-72
2022/10/02 11:44:31;;;;;;;;;7.00;7.00;15.20;99.90;;;;;;5023445;28;10308;-72
2022/10/02 11:47:26;;;;;;;;;5.25;5.25;15.10;99.90;;;;;;5011644;28;10154;-73
2022/10/02 11:50:38;;;;;;;;;5.25;5.25;15.20;99.90;;;;;;5020813;28;10351;-73
2022/10/02 11:53:44;;;;;;;;;4.00;4.00;15.10;99.90;;;;;;5015947;28;10225;-73
2022/10/02 11:56:58;;;;;;;;;8.25;8.25;15.10;99.90;;;;;;5023751;28;10335;-72
2022/10/02 12:00:03;;;;;;;;;6.75;6.75;15.10;99.90;;;;;;4992369;28;9994;-72
2022/10/02 12:02:45;;;;;;;;;5.50;5.50;15.00;99.90;;;;;;5015600;28;10496;-75
2022/10/02 12:05:33;;;;;;;;;5.75;5.75;14.80;99.90;;;;;;5020840;28;10360;-72
2022/10/02 12:08:16;;;;;;;;;5.25;5.25;14.80;99.90;;;;;;5007776;28;10334;-73
2022/10/02 12:11:15;;;;;;;;;5.25;5.25;14.70;99.90;;;;;;5016335;28;10296;-73
2022/10/02 12:14:06;;;;;;;;;7.50;6.00;14.70;99.90;;;;;;5007793;28;11331;-73
2022/10/02 12:16:42;;;;;;;;;6.50;6.50;14.70;99.90;;;;;;5001116;28;10442;-73
2022/10/02 12:19:24;;;;;;;;;7.00;7.00;14.70;99.90;;;;;;5022918;28;10445;-72
2022/10/02 12:29:04;;;;;;;;;5.50;5.50;14.70;99.90;;;;;;5022327;28;10388;-72
2022/10/02 12:32:15;;;;;;;;;5.25;5.25;14.70;99.90;;;;;;5018091;28;10455;-72
2022/10/02 12:35:28;;;;;;;;;6.50;6.50;14.80;99.90;;;;;;5020945;28;10452;-74
2022/10/02 12:38:20;;;;;;;;;6.25;6.25;14.60;99.90;;;;;;5024110;28;10512;-73
2022/10/02 12:41:45;;;;;;;;;6.50;6.50;14.90;99.90;;;;;;5020479;28;10367;-73
2022/10/02 12:44:43;;;;;;;;;6.00;6.00;15.00;99.90;;;;;;5022118;28;10474;-74
2022/10/02 12:47:39;;;;;;;;;3.50;3.50;15.10;99.90;;;;;;5021137;28;10623;-72
2022/10/02 12:50:38;;;;;;;;;3.75;3.75;14.90;99.90;;;;;;5018004;28;10587;-72
2022/10/02 12:53:43;;;;;;;;;5.25;5.25;14.80;99.90;;;;;;5002104;28;10527;-73
2022/10/02 12:56:26;;;;;;;;;5.25;5.25;14.90;99.90;;;;;;5003310;28;10630;-72
2022/10/02 12:59:24;;;;;;;;;6.25;6.25;14.90;99.90;;;;;;5021045;28;10509;-71
2022/10/02 13:02:35;;;;;;;;;5.50;5.50;15.10;99.90;;;;;;5019472;28;10576;-72
2022/10/02 13:05:44;;;;;;;;;5.25;4.75;15.20;99.90;;;;;;4989302;28;10426;-74
2022/10/02 13:08:24;;;;;;;;;6.00;6.00;15.20;99.90;;;;;;5019601;28;10725;-72
2022/10/02 13:11:12;;;;;;;;;5.75;5.75;15.50;99.90;;;;;;5018874;28;10373;-73
2022/10/02 13:14:28;;;;;;;;;6.00;6.00;15.80;99.90;;;;;;4986926;28;10539;-71
2022/10/02 13:17:17;;;;;;;;;6.75;6.75;15.80;99.90;;;;;;4995748;28;10629;-72
2022/10/02 13:20:13;;;;;;;;;5.75;5.75;15.70;99.90;;;;;;5002844;28;10620;-73
2022/10/02 13:23:19;;;;;;;;;6.25;6.25;15.70;99.90;;;;;;5019976;28;10454;-74
2022/10/02 13:26:24;;;;;;;;;5.75;5.75;15.90;99.90;;;;;;5017086;28;10307;-73
2022/10/02 13:29:45;;;;;;;;;8.25;5.75;16.00;99.90;;;;;;5003899;28;10586;-72
2022/10/02 13:32:37;;;;;;;;;5.75;5.75;16.10;99.90;;;;;;5003682;28;10540;-73
2022/10/02 13:35:57;;;;;;;;;5.75;5.75;16.10;99.90;;;;;;5020587;28;10489;-73
2022/10/02 13:38:56;;;;;;;;;7.50;7.50;16.20;99.90;;;;;;5021250;28;10491;-73
2022/10/02 13:41:43;;;;;;;;;6.00;6.00;16.20;99.90;;;;;;4999280;28;10481;-72
2022/10/02 13:44:16;;;;;;;;;7.25;7.25;16.30;99.90;;;;;;5017198;28;10314;-72
2022/10/02 13:47:13;;;;;;;;;6.75;6.75;16.40;99.90;;;;;;5002066;28;10457;-73
2022/10/02 13:50:10;;;;;;;;;5.25;5.25;16.50;99.90;;;;;;4999829;28;11220;-73
2022/10/02 13:53:27;;;;;;;;;7.25;7.25;16.60;99.90;;;;;;5000685;28;10336;-73
2022/10/02 13:56:09;;;;;;;;;6.75;6.75;16.70;99.90;;;;;;4903925;29;10611;-72
2022/10/02 13:59:30;;;;;;;;;7.25;7.25;16.80;99.90;;;;;;4902683;28;10337;-73
2022/10/02 14:02:23;;;;;;;;;4.75;4.75;17.00;99.90;;;;;;4903872;29;10378;-72
2022/10/02 14:05:32;;;;;;;;;5.75;5.75;17.10;99.90;;;;;;4946331;28;10395;-73
2022/10/02 14:08:26;;;;;;;;;6.50;6.50;17.30;99.90;;;;;;5014976;28;10423;-73
2022/10/02 14:11:18;;;;;;;;;7.50;7.50;17.10;99.90;;;;;;5005720;28;10302;-74
2022/10/02 14:14:29;;;;;;;;;7.50;7.50;17.10;99.90;;;;;;5007680;28;10341;-73
2022/10/02 14:17:31;;;;;;;;;8.00;8.00;17.10;99.90;;;;;;5002186;28;10387;-71
2022/10/02 14:20:14;;;;;;;;;6.00;6.00;17.10;99.90;;;;;;5018161;28;10305;-73
2022/10/02 14:22:51;;;;;;;;;7.50;6.00;17.10;99.90;;;;;;5017949;28;10125;-72
2022/10/02 14:25:34;;;;;;;;;6.50;6.50;17.40;99.90;;;;;;4998637;28;10048;-72
2022/10/02 14:28:20;;;;;;;;;6.25;5.50;17.50;99.90;;;;;;5001362;28;10277;-72
2022/10/02 14:31:05;;;;;;;;;7.75;7.75;17.60;99.90;;;;;;4998700;28;10161;-72
2022/10/02 14:33:49;;;;;;;;;6.75;6.75;17.80;99.90;;;;;;5009319;28;10289;-73
2022/10/02 14:36:36;;;;;;;;;7.75;6.00;17.90;99.90;;;;;;5008853;28;10190;-71
2022/10/02 14:39:22;;;;;;;;;6.00;6.00;18.10;99.90;;;;;;5005070;28;10006;-72
2022/10/02 14:42:13;;;;;;;;;6.00;6.00;18.20;99.90;;;;;;5015561;28;9935;-72
2022/10/02 14:45:09;;;;;;;;;5.75;5.75;18.20;99.90;;;;;;5008378;28;9987;-73
2022/10/02 14:47:58;;;;;;;;;8.50;8.50;18.30;99.90;;;;;;5004327;28;9905;-72
2022/10/02 14:50:59;;;;;;;;;6.25;6.25;18.40;99.90;;;;;;5002224;28;9998;-74
2022/10/02 14:53:48;;;;;;;;;6.75;6.75;18.40;99.90;;;;;;5021018;28;9840;-73
2022/10/02 14:56:49;;;;;;;;;6.00;6.00;18.50;99.90;;;;;;5022799;28;9787;-73
2022/10/02 15:00:10;;;;;;;;;5.25;5.25;18.60;99.90;;;;;;5023439;28;9941;-72
2022/10/02 15:02:48;;;;;;;;;5.50;5.50;18.70;99.90;;;;;;4977982;28;9779;-72
2022/10/02 15:05:48;;;;;;;;;7.25;7.25;18.70;99.90;;;;;;4978261;28;9930;-72
2022/10/02 15:08:33;;;;;;;;;6.50;6.50;18.90;99.90;;;;;;4994446;28;9955;-72